sensor_id;sensor_type;location;lat;lon;timestamp;temperature;humidity
27797;DHT22;15177;50.844;4.412;2023-06-05T00:00:42;16.70;99.90
27797;DHT22;15177;50.844;4.412;2023-06-05T00:03:08;16.70;99.90
27797;DHT22;15177;50.844;4.412;2023-06-05T00:05:34;16.60;99.90
27797;DHT22;15177;50.844;4.412;2023-06-05T00:08:00;16.70;99.90
27797;DHT22;15177;50.844;4.412;2023-06-05T00:10:25;16.70;99.90
27797;DHT22;15177;50.844;4.412;2023-06-05T00:12:51;16.60;99.90
27797;DHT22;15177;50.844;4.412;2023-06-05T00:15:17;16.50;99.90
27797;DHT22;15177;50.844;4.412;2023-06-05T00:17:42;16.50;99.90
27797;DHT22;15177;50.844;4.412;2023-06-05T00:20:11;16.40;99.90
27797;DHT22;15177;50.844;4.412;2023-06-05T00:22:36;16.40;99.90
27797;DHT22;15177;50.844;4.412;2023-06-05T00:25:03;16.40;99.90
27797;DHT22;15177;50.844;4.412;2023-06-05T00:27:29;16.30;99.90
27797;DHT22;15177;50.844;4.412;2023-06-05T00:29:55;16.30;99.90
27797;DHT22;15177;50.844;4.412;2023-06-05T00:32:21;16.30;99.90
27797;DHT22;15177;50.844;4.412;2023-06-05T00:34:48;16.40;99.90
27797;DHT22;15177;50.844;4.412;2023-06-05T00:37:15;16.30;99.90
27797;DHT22;15177;50.844;4.412;2023-06-05T00:39:41;16.30;99.90
27797;DHT22;15177;50.844;4.412;2023-06-05T00:42:08;16.30;99.90
27797;DHT22;15177;50.844;4.412;2023-06-05T00:44:37;16.30;99.90
27797;DHT22;15177;50.844;4.412;2023-06-05T00:47:03;16.30;99.90
27797;DHT22;15177;50.844;4.412;2023-06-05T00:49:30;16.20;99.90
27797;DHT22;15177;50.844;4.412;2023-06-05T00:51:58;16.20;99.90
27797;DHT22;15177;50.844;4.412;2023-06-05T00:54:24;16.20;99.90
27797;DHT22;15177;50.844;4.412;2023-06-05T00:56:50;16.10;99.90
27797;DHT22;15177;50.844;4.412;2023-06-05T00:59:18;16.00;99.90
27797;DHT22;15177;50.844;4.412;2023-06-05T01:01:44;16.10;99.90
27797;DHT22;15177;50.844;4.412;2023-06-05T01:04:12;16.10;99.90
27797;DHT22;15177;50.844;4.412;2023-06-05T01:06:38;16.10;99.90
27797;DHT22;15177;50.844;4.412;2023-06-05T01:09:07;16.00;99.90
27797;DHT22;15177;50.844;4.412;2023-06-05T01:12:08;15.90;99.90
27797;DHT22;15177;50.844;4.412;2023-06-05T01:14:38;15.90;99.90
27797;DHT22;15177;50.844;4.412;2023-06-05T01:17:07;15.90;99.90
27797;DHT22;15177;50.844;4.412;2023-06-05T01:19:35;15.90;99.90
27797;DHT22;15177;50.844;4.412;2023-06-05T01:22:01;15.90;99.90
27797;DHT22;15177;50.844;4.412;2023-06-05T01:24:27;15.80;99.90
27797;DHT22;15177;50.844;4.412;2023-06-05T01:26:58;15.70;99.90
27797;DHT22;15177;50.844;4.412;2023-06-05T01:29:46;15.70;99.90
27797;DHT22;15177;50.844;4.412;2023-06-05T01:32:28;15.70;99.90
27797;DHT22;15177;50.844;4.412;2023-06-05T01:34:55;15.60;99.90
27797;DHT22;15177;50.844;4.412;2023-06-05T01:37:22;15.50;99.90
27797;DHT22;15177;50.844;4.412;2023-06-05T01:39:50;15.50;99.90
27797;DHT22;15177;50.844;4.412;2023-06-05T01:42:16;15.50;99.90
27797;DHT22;15177;50.844;4.412;2023-06-05T01:44:43;15.40;99.90
27797;DHT22;15177;50.844;4.412;2023-06-05T01:47:10;15.40;99.90
27797;DHT22;15177;50.844;4.412;2023-06-05T01:49:36;15.30;99.90
27797;DHT22;15177;50.844;4.412;2023-06-05T01:52:02;15.30;99.90
27797;DHT22;15177;50.844;4.412;2023-06-05T01:54:27;15.30;99.90
27797;DHT22;15177;50.844;4.412;2023-06-05T01:56:54;15.20;99.90
27797;DHT22;15177;50.844;4.412;2023-06-05T01:59:21;15.30;99.90
27797;DHT22;15177;50.844;4.412;2023-06-05T02:01:47;15.30;99.90
27797;DHT22;15177;50.844;4.412;2023-06-05T02:04:14;15.20;99.90
27797;DHT22;15177;50.844;4.412;2023-06-05T02:06:44;15.10;99.90
27797;DHT22;15177;50.844;4.412;2023-06-05T02:09:11;15.10;99.90
27797;DHT22;15177;50.844;4.412;2023-06-05T02:11:40;15.10;99.90
27797;DHT22;15177;50.844;4.412;2023-06-05T02:14:08;15.00;99.90
27797;DHT22;15177;50.844;4.412;2023-06-05T02:16:34;15.00;99.90
27797;DHT22;15177;50.844;4.412;2023-06-05T02:19:02;14.90;99.90
27797;DHT22;15177;50.844;4.412;2023-06-05T02:21:33;14.90;99.90
27797;DHT22;15177;50.844;4.412;2023-06-05T02:24:02;14.90;99.90
27797;DHT22;15177;50.844;4.412;2023-06-05T02:26:28;14.80;99.90
27797;DHT22;15177;50.844;4.412;2023-06-05T02:28:56;14.80;99.90
27797;DHT22;15177;50.844;4.412;2023-06-05T02:31:23;14.80;99.90
27797;DHT22;15177;50.844;4.412;2023-06-05T02:33:55;14.90;99.90
27797;DHT22;15177;50.844;4.412;2023-06-05T02:36:23;14.90;99.90
27797;DHT22;15177;50.844;4.412;2023-06-05T02:38:49;14.80;99.90
27797;DHT22;15177;50.844;4.412;2023-06-05T02:41:16;14.80;99.90
27797;DHT22;15177;50.844;4.412;2023-06-05T02:43:42;14.80;99.90
27797;DHT22;15177;50.844;4.412;2023-06-05T02:46:09;14.80;99.90
27797;DHT22;15177;50.844;4.412;2023-06-05T02:48:35;14.70;99.90
27797;DHT22;15177;50.844;4.412;2023-06-05T02:51:00;14.80;99.90
27797;DHT22;15177;50.844;4.412;2023-06-05T02:53:26;14.70;99.90
27797;DHT22;15177;50.844;4.412;2023-06-05T02:55:52;14.70;99.90
27797;DHT22;15177;50.844;4.412;2023-06-05T02:58:18;14.70;99.90
27797;DHT22;15177;50.844;4.412;2023-06-05T03:00:44;14.50;99.90
27797;DHT22;15177;50.844;4.412;2023-06-05T03:03:11;14.50;99.90
27797;DHT22;15177;50.844;4.412;2023-06-05T03:05:38;14.50;99.90
27797;DHT22;15177;50.844;4.412;2023-06-05T03:08:06;14.50;99.90
27797;DHT22;15177;50.844;4.412;2023-06-05T03:10:33;14.50;99.90
27797;DHT22;15177;50.844;4.412;2023-06-05T03:12:59;14.30;99.90
27797;DHT22;15177;50.844;4.412;2023-06-05T03:15:25;14.30;99.90
27797;DHT22;15177;50.844;4.412;2023-06-05T03:17:50;14.30;99.90
27797;DHT22;15177;50.844;4.412;2023-06-05T03:20:18;14.30;99.90
27797;DHT22;15177;50.844;4.412;2023-06-05T03:22:44;14.30;99.90
27797;DHT22;15177;50.844;4.412;2023-06-05T03:25:10;14.30;99.90
27797;DHT22;15177;50.844;4.412;2023-06-05T03:27:36;14.30;99.90
27797;DHT22;15177;50.844;4.412;2023-06-05T03:30:03;14.30;99.90
27797;DHT22;15177;50.844;4.412;2023-06-05T03:32:30;14.30;99.90
27797;DHT22;15177;50.844;4.412;2023-06-05T03:34:56;14.30;99.90
27797;DHT22;15177;50.844;4.412;2023-06-05T03:37:21;14.20;99.90
27797;DHT22;15177;50.844;4.412;2023-06-05T03:39:47;14.20;99.90
27797;DHT22;15177;50.844;4.412;2023-06-05T03:42:13;14.20;99.90
27797;DHT22;15177;50.844;4.412;2023-06-05T03:44:38;14.20;99.90
27797;DHT22;15177;50.844;4.412;2023-06-05T03:47:05;14.10;99.90
27797;DHT22;15177;50.844;4.412;2023-06-05T03:49:32;14.10;99.90
27797;DHT22;15177;50.844;4.412;2023-06-05T03:51:57;14.10;99.90
27797;DHT22;15177;50.844;4.412;2023-06-05T03:54:27;14.00;99.90
27797;DHT22;15177;50.844;4.412;2023-06-05T03:56:54;14.10;99.90
27797;DHT22;15177;50.844;4.412;2023-06-05T03:59:21;14.00;99.90
27797;DHT22;15177;50.844;4.412;2023-06-05T04:01:48;13.90;99.90
27797;DHT22;15177;50.844;4.412;2023-06-05T04:04:15;13.80;99.90
27797;DHT22;15177;50.844;4.412;2023-06-05T04:06:41;13.70;99.90
27797;DHT22;15177;50.844;4.412;2023-06-05T04:09:07;13.80;99.90
27797;DHT22;15177;50.844;4.412;2023-06-05T04:11:40;13.80;99.90
27797;DHT22;15177;50.844;4.412;2023-06-05T04:14:06;13.90;99.90
27797;DHT22;15177;50.844;4.412;2023-06-05T04:16:33;14.00;99.90
27797;DHT22;15177;50.844;4.412;2023-06-05T04:19:10;14.10;99.90
27797;DHT22;15177;50.844;4.412;2023-06-05T04:21:37;14.10;99.90
27797;DHT22;15177;50.844;4.412;2023-06-05T04:24:05;14.10;99.90
27797;DHT22;15177;50.844;4.412;2023-06-05T04:26:33;14.10;99.90
27797;DHT22;15177;50.844;4.412;2023-06-05T04:28:59;14.10;99.90
27797;DHT22;15177;50.844;4.412;2023-06-05T04:31:25;14.10;99.90
27797;DHT22;15177;50.844;4.412;2023-06-05T04:33:52;14.10;99.90
27797;DHT22;15177;50.844;4.412;2023-06-05T04:36:18;14.10;99.90
27797;DHT22;15177;50.844;4.412;2023-06-05T04:38:44;14.10;99.90
27797;DHT22;15177;50.844;4.412;2023-06-05T04:41:12;14.10;99.90
27797;DHT22;15177;50.844;4.412;2023-06-05T04:43:38;14.10;99.90
27797;DHT22;15177;50.844;4.412;2023-06-05T04:46:04;14.20;99.90
27797;DHT22;15177;50.844;4.412;2023-06-05T04:48:30;14.20;99.90
27797;DHT22;15177;50.844;4.412;2023-06-05T04:50:56;14.30;99.90
27797;DHT22;15177;50.844;4.412;2023-06-05T04:53:27;14.30;99.90
27797;DHT22;15177;50.844;4.412;2023-06-05T04:55:54;14.40;99.90
27797;DHT22;15177;50.844;4.412;2023-06-05T04:58:21;14.40;99.90
27797;DHT22;15177;50.844;4.412;2023-06-05T05:00:47;14.40;99.90
27797;DHT22;15177;50.844;4.412;2023-06-05T05:03:14;14.40;99.90
27797;DHT22;15177;50.844;4.412;2023-06-05T05:05:41;14.50;99.90
27797;DHT22;15177;50.844;4.412;2023-06-05T05:08:07;14.50;99.90
27797;DHT22;15177;50.844;4.412;2023-06-05T05:10:33;14.40;99.90
27797;DHT22;15177;50.844;4.412;2023-06-05T05:12:58;14.50;99.90
27797;DHT22;15177;50.844;4.412;2023-06-05T05:15:27;14.40;99.90
27797;DHT22;15177;50.844;4.412;2023-06-05T05:17:55;14.50;99.90
27797;DHT22;15177;50.844;4.412;2023-06-05T05:20:22;14.60;99.90
27797;DHT22;15177;50.844;4.412;2023-06-05T05:22:48;14.70;99.90
27797;DHT22;15177;50.844;4.412;2023-06-05T05:25:14;15.00;99.90
27797;DHT22;15177;50.844;4.412;2023-06-05T05:27:41;15.20;99.90
27797;DHT22;15177;50.844;4.412;2023-06-05T05:30:08;15.30;99.90
27797;DHT22;15177;50.844;4.412;2023-06-05T05:32:33;15.50;99.90
27797;DHT22;15177;50.844;4.412;2023-06-05T05:34:59;15.80;99.90
27797;DHT22;15177;50.844;4.412;2023-06-05T05:37:25;16.20;99.90
27797;DHT22;15177;50.844;4.412;2023-06-05T05:39:51;16.40;99.90
27797;DHT22;15177;50.844;4.412;2023-06-05T05:42:17;16.50;99.90
27797;DHT22;15177;50.844;4.412;2023-06-05T05:44:43;16.90;99.90
27797;DHT22;15177;50.844;4.412;2023-06-05T05:47:10;17.20;99.90
27797;DHT22;15177;50.844;4.412;2023-06-05T05:49:36;17.60;99.90
27797;DHT22;15177;50.844;4.412;2023-06-05T05:52:02;17.60;99.90
27797;DHT22;15177;50.844;4.412;2023-06-05T05:54:28;18.20;99.90
27797;DHT22;15177;50.844;4.412;2023-06-05T05:56:54;18.80;99.90
27797;DHT22;15177;50.844;4.412;2023-06-05T05:59:21;19.30;99.90
27797;DHT22;15177;50.844;4.412;2023-06-05T06:01:47;19.70;99.90
27797;DHT22;15177;50.844;4.412;2023-06-05T06:04:17;20.20;99.90
27797;DHT22;15177;50.844;4.412;2023-06-05T06:06:44;21.00;99.90
27797;DHT22;15177;50.844;4.412;2023-06-05T06:09:13;22.00;99.90
27797;DHT22;15177;50.844;4.412;2023-06-05T06:11:40;22.50;99.90
27797;DHT22;15177;50.844;4.412;2023-06-05T06:14:05;23.20;98.90
27797;DHT22;15177;50.844;4.412;2023-06-05T06:16:31;23.80;96.40
27797;DHT22;15177;50.844;4.412;2023-06-05T06:18:57;24.10;94.80
27797;DHT22;15177;50.844;4.412;2023-06-05T06:21:23;24.10;94.00
27797;DHT22;15177;50.844;4.412;2023-06-05T06:23:50;24.10;93.60
27797;DHT22;15177;50.844;4.412;2023-06-05T06:26:18;24.20;93.30
27797;DHT22;15177;50.844;4.412;2023-06-05T06:28:44;24.70;92.30
27797;DHT22;15177;50.844;4.412;2023-06-05T06:31:10;24.80;90.80
27797;DHT22;15177;50.844;4.412;2023-06-05T06:33:36;24.50;91.60
27797;DHT22;15177;50.844;4.412;2023-06-05T06:36:02;24.30;91.50
27797;DHT22;15177;50.844;4.412;2023-06-05T06:38:29;24.40;91.50
27797;DHT22;15177;50.844;4.412;2023-06-05T06:40:58;24.80;90.50
27797;DHT22;15177;50.844;4.412;2023-06-05T06:43:23;25.10;89.40
27797;DHT22;15177;50.844;4.412;2023-06-05T06:45:50;25.40;87.80
27797;DHT22;15177;50.844;4.412;2023-06-05T06:48:16;25.40;87.10
27797;DHT22;15177;50.844;4.412;2023-06-05T06:50:45;25.40;87.00
27797;DHT22;15177;50.844;4.412;2023-06-05T06:53:11;25.90;85.50
27797;DHT22;15177;50.844;4.412;2023-06-05T06:55:37;25.80;84.90
27797;DHT22;15177;50.844;4.412;2023-06-05T06:58:05;25.40;86.30
27797;DHT22;15177;50.844;4.412;2023-06-05T07:00:31;26.20;84.00
27797;DHT22;15177;50.844;4.412;2023-06-05T07:02:57;26.80;81.60
27797;DHT22;15177;50.844;4.412;2023-06-05T07:05:22;26.50;80.40
27797;DHT22;15177;50.844;4.412;2023-06-05T07:07:49;26.90;79.70
27797;DHT22;15177;50.844;4.412;2023-06-05T07:10:15;27.20;78.30
27797;DHT22;15177;50.844;4.412;2023-06-05T07:12:41;27.60;76.50
27797;DHT22;15177;50.844;4.412;2023-06-05T07:15:07;27.70;76.10
27797;DHT22;15177;50.844;4.412;2023-06-05T07:17:37;27.80;75.10
27797;DHT22;15177;50.844;4.412;2023-06-05T07:20:03;27.60;74.90
27797;DHT22;15177;50.844;4.412;2023-06-05T07:22:32;28.00;73.90
27797;DHT22;15177;50.844;4.412;2023-06-05T07:24:58;28.00;73.40
27797;DHT22;15177;50.844;4.412;2023-06-05T07:27:24;28.00;73.10
27797;DHT22;15177;50.844;4.412;2023-06-05T07:29:50;27.80;72.70
27797;DHT22;15177;50.844;4.412;2023-06-05T07:32:18;28.10;72.50
27797;DHT22;15177;50.844;4.412;2023-06-05T07:34:44;28.10;71.80
27797;DHT22;15177;50.844;4.412;2023-06-05T07:37:10;27.80;72.10
27797;DHT22;15177;50.844;4.412;2023-06-05T07:39:36;27.90;71.80
27797;DHT22;15177;50.844;4.412;2023-06-05T07:42:02;28.10;71.40
27797;DHT22;15177;50.844;4.412;2023-06-05T07:44:31;28.20;71.40
27797;DHT22;15177;50.844;4.412;2023-06-05T07:46:58;28.30;71.40
27797;DHT22;15177;50.844;4.412;2023-06-05T07:49:24;28.20;70.40
27797;DHT22;15177;50.844;4.412;2023-06-05T07:51:51;28.90;69.10
27797;DHT22;15177;50.844;4.412;2023-06-05T07:54:17;29.40;67.90
27797;DHT22;15177;50.844;4.412;2023-06-05T07:56:46;30.10;65.80
27797;DHT22;15177;50.844;4.412;2023-06-05T07:59:14;29.90;65.30
27797;DHT22;15177;50.844;4.412;2023-06-05T08:01:42;30.20;64.90
27797;DHT22;15177;50.844;4.412;2023-06-05T08:04:18;30.90;64.10
27797;DHT22;15177;50.844;4.412;2023-06-05T08:06:45;31.30;62.30
27797;DHT22;15177;50.844;4.412;2023-06-05T08:09:11;31.60;60.20
27797;DHT22;15177;50.844;4.412;2023-06-05T08:11:43;31.40;60.80
27797;DHT22;15177;50.844;4.412;2023-06-05T08:14:12;31.10;61.40
27797;DHT22;15177;50.844;4.412;2023-06-05T08:17:11;31.50;59.70
27797;DHT22;15177;50.844;4.412;2023-06-05T08:19:50;31.40;60.10
27797;DHT22;15177;50.844;4.412;2023-06-05T08:22:22;32.20;59.00
27797;DHT22;15177;50.844;4.412;2023-06-05T08:24:49;31.90;58.50
27797;DHT22;15177;50.844;4.412;2023-06-05T08:27:25;31.90;58.50
27797;DHT22;15177;50.844;4.412;2023-06-05T08:29:58;31.70;58.60
27797;DHT22;15177;50.844;4.412;2023-06-05T08:32:28;31.90;57.70
27797;DHT22;15177;50.844;4.412;2023-06-05T08:34:54;31.70;57.90
27797;DHT22;15177;50.844;4.412;2023-06-05T08:37:20;31.50;57.90
27797;DHT22;15177;50.844;4.412;2023-06-05T08:39:46;31.30;58.20
27797;DHT22;15177;50.844;4.412;2023-06-05T08:42:26;31.30;58.10
27797;DHT22;15177;50.844;4.412;2023-06-05T08:44:54;31.40;58.10
27797;DHT22;15177;50.844;4.412;2023-06-05T08:47:22;31.50;57.60
27797;DHT22;15177;50.844;4.412;2023-06-05T08:49:54;31.90;57.30
27797;DHT22;15177;50.844;4.412;2023-06-05T08:52:23;32.70;56.30
27797;DHT22;15177;50.844;4.412;2023-06-05T08:54:49;32.90;55.30
27797;DHT22;15177;50.844;4.412;2023-06-05T08:57:16;32.50;55.10
27797;DHT22;15177;50.844;4.412;2023-06-05T08:59:43;32.50;55.10
27797;DHT22;15177;50.844;4.412;2023-06-05T09:02:12;31.40;56.60
27797;DHT22;15177;50.844;4.412;2023-06-05T09:04:40;31.00;57.30
27797;DHT22;15177;50.844;4.412;2023-06-05T09:07:12;31.40;56.90
27797;DHT22;15177;50.844;4.412;2023-06-05T09:09:40;32.00;56.30
27797;DHT22;15177;50.844;4.412;2023-06-05T09:12:08;32.40;55.00
27797;DHT22;15177;50.844;4.412;2023-06-05T09:14:34;32.90;54.70
27797;DHT22;15177;50.844;4.412;2023-06-05T09:17:02;33.10;53.60
27797;DHT22;15177;50.844;4.412;2023-06-05T09:19:41;33.10;53.70
27797;DHT22;15177;50.844;4.412;2023-06-05T09:22:10;32.80;54.10
27797;DHT22;15177;50.844;4.412;2023-06-05T09:28:36;32.80;54.60
27797;DHT22;15177;50.844;4.412;2023-06-05T09:31:11;33.30;53.70
27797;DHT22;15177;50.844;4.412;2023-06-05T09:33:57;33.00;53.60
27797;DHT22;15177;50.844;4.412;2023-06-05T09:36:32;32.50;54.50
27797;DHT22;15177;50.844;4.412;2023-06-05T09:39:23;32.30;54.10
27797;DHT22;15177;50.844;4.412;2023-06-05T09:41:55;32.50;53.90
27797;DHT22;15177;50.844;4.412;2023-06-05T09:44:22;32.90;53.70
27797;DHT22;15177;50.844;4.412;2023-06-05T09:46:52;33.60;52.90
27797;DHT22;15177;50.844;4.412;2023-06-05T09:49:24;33.70;52.30
27797;DHT22;15177;50.844;4.412;2023-06-05T09:51:50;34.00;51.80
27797;DHT22;15177;50.844;4.412;2023-06-05T09:54:16;33.60;52.40
27797;DHT22;15177;50.844;4.412;2023-06-05T09:57:03;33.60;52.40
27797;DHT22;15177;50.844;4.412;2023-06-05T10:02:33;33.50;52.00
27797;DHT22;15177;50.844;4.412;2023-06-05T10:05:03;32.80;52.80
27797;DHT22;15177;50.844;4.412;2023-06-05T10:07:33;32.90;52.80
27797;DHT22;15177;50.844;4.412;2023-06-05T10:10:01;33.10;52.90
27797;DHT22;15177;50.844;4.412;2023-06-05T10:12:30;33.20;52.60
27797;DHT22;15177;50.844;4.412;2023-06-05T10:14:57;33.50;52.00
27797;DHT22;15177;50.844;4.412;2023-06-05T10:17:23;34.10;50.80
27797;DHT22;15177;50.844;4.412;2023-06-05T10:19:50;34.20;50.70
27797;DHT22;15177;50.844;4.412;2023-06-05T10:22:19;34.50;50.60
27797;DHT22;15177;50.844;4.412;2023-06-05T10:24:48;33.20;51.50
27797;DHT22;15177;50.844;4.412;2023-06-05T10:35:59;34.40;49.70
27797;DHT22;15177;50.844;4.412;2023-06-05T10:38:35;34.00;49.90
27797;DHT22;15177;50.844;4.412;2023-06-05T10:41:12;34.10;50.20
27797;DHT22;15177;50.844;4.412;2023-06-05T10:43:51;34.10;49.80
27797;DHT22;15177;50.844;4.412;2023-06-05T10:51:53;33.10;50.50
27797;DHT22;15177;50.844;4.412;2023-06-05T10:59:24;32.40;50.80
27797;DHT22;15177;50.844;4.412;2023-06-05T11:02:21;32.80;51.10
27797;DHT22;15177;50.844;4.412;2023-06-05T11:07:26;33.10;50.80
27797;DHT22;15177;50.844;4.412;2023-06-05T11:10:08;32.90;50.90
27797;DHT22;15177;50.844;4.412;2023-06-05T11:17:48;32.10;50.50
27797;DHT22;15177;50.844;4.412;2023-06-05T11:25:27;32.90;50.80
27797;DHT22;15177;50.844;4.412;2023-06-05T11:27:59;32.30;50.70
27797;DHT22;15177;50.844;4.412;2023-06-05T11:30:29;32.70;50.10
27797;DHT22;15177;50.844;4.412;2023-06-05T11:33:18;32.20;49.80
27797;DHT22;15177;50.844;4.412;2023-06-05T11:35:47;31.00;52.10
27797;DHT22;15177;50.844;4.412;2023-06-05T11:38:37;30.70;52.30
27797;DHT22;15177;50.844;4.412;2023-06-05T11:41:09;29.80;53.10
27797;DHT22;15177;50.844;4.412;2023-06-05T11:43:41;29.00;54.60
27797;DHT22;15177;50.844;4.412;2023-06-05T11:46:09;28.20;56.80
27797;DHT22;15177;50.844;4.412;2023-06-05T11:48:35;28.30;57.20
27797;DHT22;15177;50.844;4.412;2023-06-05T11:51:15;28.30;56.30
27797;DHT22;15177;50.844;4.412;2023-06-05T11:53:45;28.10;56.10
27797;DHT22;15177;50.844;4.412;2023-06-05T11:56:15;27.80;56.50
27797;DHT22;15177;50.844;4.412;2023-06-05T11:59:17;27.20;56.60
27797;DHT22;15177;50.844;4.412;2023-06-05T12:01:49;26.90;57.80
27797;DHT22;15177;50.844;4.412;2023-06-05T12:04:16;26.80;58.10
27797;DHT22;15177;50.844;4.412;2023-06-05T12:06:45;26.60;59.00
27797;DHT22;15177;50.844;4.412;2023-06-05T12:09:14;26.60;58.50
27797;DHT22;15177;50.844;4.412;2023-06-05T12:11:42;26.50;58.40
27797;DHT22;15177;50.844;4.412;2023-06-05T12:14:11;26.40;58.00
27797;DHT22;15177;50.844;4.412;2023-06-05T12:16:42;26.00;58.70
27797;DHT22;15177;50.844;4.412;2023-06-05T12:19:17;25.70;60.20
27797;DHT22;15177;50.844;4.412;2023-06-05T12:21:49;25.70;59.80
27797;DHT22;15177;50.844;4.412;2023-06-05T12:25:40;25.60;60.10
27797;DHT22;15177;50.844;4.412;2023-06-05T12:28:23;25.50;60.90
27797;DHT22;15177;50.844;4.412;2023-06-05T12:31:10;25.80;59.90
27797;DHT22;15177;50.844;4.412;2023-06-05T12:33:49;25.50;60.50
27797;DHT22;15177;50.844;4.412;2023-06-05T12:36:18;25.70;60.70
27797;DHT22;15177;50.844;4.412;2023-06-05T12:38:44;25.70;60.00
27797;DHT22;15177;50.844;4.412;2023-06-05T12:41:11;25.70;59.70
27797;DHT22;15177;50.844;4.412;2023-06-05T12:43:58;25.60;59.30
27797;DHT22;15177;50.844;4.412;2023-06-05T12:46:51;25.70;59.10
27797;DHT22;15177;50.844;4.412;2023-06-05T12:49:53;25.60;59.10
27797;DHT22;15177;50.844;4.412;2023-06-05T12:52:38;25.50;60.20
27797;DHT22;15177;50.844;4.412;2023-06-05T12:55:12;25.60;59.80
27797;DHT22;15177;50.844;4.412;2023-06-05T12:57:38;25.00;60.70
27797;DHT22;15177;50.844;4.412;2023-06-05T13:00:06;25.10;60.70
27797;DHT22;15177;50.844;4.412;2023-06-05T13:02:42;25.20;59.70
27797;DHT22;15177;50.844;4.412;2023-06-05T13:05:11;25.20;59.90
27797;DHT22;15177;50.844;4.412;2023-06-05T13:07:38;25.50;60.50
27797;DHT22;15177;50.844;4.412;2023-06-05T13:10:06;25.70;59.60
27797;DHT22;15177;50.844;4.412;2023-06-05T13:12:32;25.80;59.20
27797;DHT22;15177;50.844;4.412;2023-06-05T13:14:58;25.70;58.60
27797;DHT22;15177;50.844;4.412;2023-06-05T13:17:26;25.50;58.40
27797;DHT22;15177;50.844;4.412;2023-06-05T13:19:52;25.50;58.80
27797;DHT22;15177;50.844;4.412;2023-06-05T13:22:18;25.40;58.90
27797;DHT22;15177;50.844;4.412;2023-06-05T13:24:44;25.40;59.00
27797;DHT22;15177;50.844;4.412;2023-06-05T13:27:11;25.60;58.30
27797;DHT22;15177;50.844;4.412;2023-06-05T13:29:38;25.70;58.50
27797;DHT22;15177;50.844;4.412;2023-06-05T13:32:04;25.60;59.20
27797;DHT22;15177;50.844;4.412;2023-06-05T13:34:30;25.50;59.30
27797;DHT22;15177;50.844;4.412;2023-06-05T13:36:57;25.60;58.50
27797;DHT22;15177;50.844;4.412;2023-06-05T13:39:25;25.50;58.40
27797;DHT22;15177;50.844;4.412;2023-06-05T13:41:55;25.40;58.40
27797;DHT22;15177;50.844;4.412;2023-06-05T13:44:21;25.40;58.50
27797;DHT22;15177;50.844;4.412;2023-06-05T13:46:46;25.40;59.30
27797;DHT22;15177;50.844;4.412;2023-06-05T13:49:15;25.40;59.30
27797;DHT22;15177;50.844;4.412;2023-06-05T13:51:41;25.40;59.30
27797;DHT22;15177;50.844;4.412;2023-06-05T13:54:13;25.30;59.20
27797;DHT22;15177;50.844;4.412;2023-06-05T13:56:44;25.40;59.00
27797;DHT22;15177;50.844;4.412;2023-06-05T13:59:09;25.30;59.40
27797;DHT22;15177;50.844;4.412;2023-06-05T14:01:35;25.30;59.40
27797;DHT22;15177;50.844;4.412;2023-06-05T14:04:02;25.30;59.40
27797;DHT22;15177;50.844;4.412;2023-06-05T14:06:28;25.10;59.90
27797;DHT22;15177;50.844;4.412;2023-06-05T14:08:54;25.10;60.60
27797;DHT22;15177;50.844;4.412;2023-06-05T14:11:19;25.00;61.10
27797;DHT22;15177;50.844;4.412;2023-06-05T14:13:45;25.00;62.30
27797;DHT22;15177;50.844;4.412;2023-06-05T14:16:11;25.20;61.30
27797;DHT22;15177;50.844;4.412;2023-06-05T14:18:38;25.10;61.10
27797;DHT22;15177;50.844;4.412;2023-06-05T14:21:04;25.10;62.20
27797;DHT22;15177;50.844;4.412;2023-06-05T14:23:32;25.10;61.90
27797;DHT22;15177;50.844;4.412;2023-06-05T14:25:58;25.20;60.70
27797;DHT22;15177;50.844;4.412;2023-06-05T14:28:24;25.10;60.00
27797;DHT22;15177;50.844;4.412;2023-06-05T14:30:51;25.10;60.60
27797;DHT22;15177;50.844;4.412;2023-06-05T14:33:17;25.30;61.40
27797;DHT22;15177;50.844;4.412;2023-06-05T14:35:44;25.30;62.10
27797;DHT22;15177;50.844;4.412;2023-06-05T14:38:10;25.30;62.40
27797;DHT22;15177;50.844;4.412;2023-06-05T14:40:38;24.90;61.10
27797;DHT22;15177;50.844;4.412;2023-06-05T14:43:04;24.90;61.60
27797;DHT22;15177;50.844;4.412;2023-06-05T14:45:31;25.10;61.40
27797;DHT22;15177;50.844;4.412;2023-06-05T14:47:57;25.20;60.00
27797;DHT22;15177;50.844;4.412;2023-06-05T14:50:24;25.20;60.60
27797;DHT22;15177;50.844;4.412;2023-06-05T14:52:49;25.10;60.70
27797;DHT22;15177;50.844;4.412;2023-06-05T14:55:15;25.10;60.20
27797;DHT22;15177;50.844;4.412;2023-06-05T14:57:42;24.90;61.30
27797;DHT22;15177;50.844;4.412;2023-06-05T15:00:08;25.00;61.80
27797;DHT22;15177;50.844;4.412;2023-06-05T15:02:36;24.80;62.20
27797;DHT22;15177;50.844;4.412;2023-06-05T15:05:02;24.80;62.30
27797;DHT22;15177;50.844;4.412;2023-06-05T15:07:40;24.90;62.80
27797;DHT22;15177;50.844;4.412;2023-06-05T15:10:08;24.90;63.50
27797;DHT22;15177;50.844;4.412;2023-06-05T15:12:35;25.00;63.00
27797;DHT22;15177;50.844;4.412;2023-06-05T15:15:01;25.00;62.40
27797;DHT22;15177;50.844;4.412;2023-06-05T15:17:28;25.00;62.80
27797;DHT22;15177;50.844;4.412;2023-06-05T15:19:53;25.10;62.80
27797;DHT22;15177;50.844;4.412;2023-06-05T15:22:19;25.10;62.30
27797;DHT22;15177;50.844;4.412;2023-06-05T15:24:47;24.90;62.90
27797;DHT22;15177;50.844;4.412;2023-06-05T15:27:13;24.90;62.40
27797;DHT22;15177;50.844;4.412;2023-06-05T15:29:38;24.70;63.00
27797;DHT22;15177;50.844;4.412;2023-06-05T15:32:16;24.50;63.90
27797;DHT22;15177;50.844;4.412;2023-06-05T15:34:43;24.40;65.00
27797;DHT22;15177;50.844;4.412;2023-06-05T15:37:10;24.40;65.00
27797;DHT22;15177;50.844;4.412;2023-06-05T15:39:36;24.50;65.30
27797;DHT22;15177;50.844;4.412;2023-06-05T15:42:01;24.70;64.20
27797;DHT22;15177;50.844;4.412;2023-06-05T15:44:28;24.70;63.80
27797;DHT22;15177;50.844;4.412;2023-06-05T15:46:54;24.60;65.00
27797;DHT22;15177;50.844;4.412;2023-06-05T15:49:19;24.70;65.10
27797;DHT22;15177;50.844;4.412;2023-06-05T15:51:45;24.70;65.40
27797;DHT22;15177;50.844;4.412;2023-06-05T15:54:12;24.60;65.40
27797;DHT22;15177;50.844;4.412;2023-06-05T15:56:40;24.60;64.70
27797;DHT22;15177;50.844;4.412;2023-06-05T15:59:06;24.40;65.50
27797;DHT22;15177;50.844;4.412;2023-06-05T16:01:32;24.40;65.70
27797;DHT22;15177;50.844;4.412;2023-06-05T16:03:57;24.50;65.30
27797;DHT22;15177;50.844;4.412;2023-06-05T16:06:26;24.70;64.40
27797;DHT22;15177;50.844;4.412;2023-06-05T16:08:53;24.90;64.90
27797;DHT22;15177;50.844;4.412;2023-06-05T16:11:19;24.90;65.00
27797;DHT22;15177;50.844;4.412;2023-06-05T16:13:45;24.90;64.80
27797;DHT22;15177;50.844;4.412;2023-06-05T16:16:11;25.00;65.00
27797;DHT22;15177;50.844;4.412;2023-06-05T16:18:37;24.90;65.30